Missoula International Airport
KMSO : rendu visible

Aérodrome :











RETROUVEZ-NOUS SUR...

 
LOGIN :

S'inscrire | Disclaimer

   EN    FR    IT 

 









Légende :    VFR   VFR Marginal   IFR   IFR Intensif   IFR Très Intensif
Visi : 
Plafond : 
>= 8 km
>= 3000ft
5 à 8 km
1000 à 3000 ft
1500m à 5 km
500 à 1000 ft
800 à 1500m
200 à 500 ft
< 800m
< 200 ft
Symboles :   Orages  Brouillard  Fortes neiges  Fortes précipitations  Vent > 20 kt






- Altitude de l'aérodrome : 3206 ft
- Code IATA : MSO


KMSO - Missoula International

DERNIER METAR :
  • 191453Z 33006KT 8SM -RA FEW003 OVC037 05/04 A2966 RMK AO2 SLP054 P0005 60009 T00500039 53008

METARs EXPIRÉS :
  • 191420Z 33007KT 5SM -RA BR BKN017 BKN026 OVC035 04/03 A2964 RMK AO2 P0003 T00440033
  • 191353Z 33003KT 3SM -RA BR BKN036 OVC045 03/03 A2964 RMK AO2 SLP047 P0003 T00330028
  • 191253Z AUTO 00000KT 10SM -RA OVC048 03/02 A2963 RMK AO2 RAB14E35B52 SLP044 P0001 T00330022

TAF KMSO
Valide du 19 à 12h jusqu'au 20 à 12h UTC


191135Z 1912/2012 VRB03KT 5SM -RA BR SCT001 OVC070
TEMPO 1912/1914 2SM BR
FM191400 VRB03KT 4SM -RA BR OVC025
FM191800 30004KT P6SM -SHRA SCT020 OVC035
FM200000 32005KT P6SM VCSH OVC050
FM200700 11008KT 2SM -SN OVC025



MET'MAP, la Météo Aéronautique d'un coup d'oeil ! - Copyright ORBIFLY Décembre 2007 - Disclaimer

ORBIFLY MET'MAP TEAM :

Programmation & Développement : Alexandra Zaïnal
Conception & Développement : Baudouin d'Aumeries
Co-Programmation & Développement : Marc-Olivier Méhu
Soutien technique & logistique : Manuel Goepfert

Contact : metmap@orbifly.com




SOURCES & CREDITS :

   NOAA       Earth
Advisory